createdAt,value
2023-01-30T00:01:28.971Z,14.93
2023-01-30T00:03:55.896Z,14.82
2023-01-30T00:06:23.968Z,13.95
2023-01-30T00:08:50.905Z,15.35
2023-01-30T00:11:19.785Z,14.13
2023-01-30T00:13:49.067Z,12.90
2023-01-30T00:16:15.947Z,13.55
2023-01-30T00:18:43.928Z,12.85
2023-01-30T00:21:14.023Z,12.07
2023-01-30T00:23:41.155Z,10.65
2023-01-30T00:26:09.737Z,10.70
2023-01-30T00:28:39.646Z,12.48
2023-01-30T00:31:07.605Z,12.05
2023-01-30T00:33:38.520Z,11.07
2023-01-30T00:36:06.264Z,11.27
2023-01-30T00:38:33.238Z,11.55
2023-01-30T00:41:00.030Z,11.35
2023-01-30T00:43:45.168Z,10.50
2023-01-30T00:46:49.680Z,10.02
2023-01-30T00:49:16.737Z,10.35
2023-01-30T00:51:43.976Z,10.00
2023-01-30T00:54:10.963Z,10.00
2023-01-30T00:56:37.784Z,11.25
2023-01-30T00:59:04.584Z,10.85
2023-01-30T01:01:31.382Z,9.80
2023-01-30T01:03:58.148Z,9.40
2023-01-30T01:06:24.952Z,8.88
2023-01-30T01:08:51.741Z,8.63
2023-01-30T01:11:24.230Z,9.02
2023-01-30T01:13:56.852Z,8.35
2023-01-30T01:16:25.725Z,7.55
2023-01-30T01:18:52.820Z,7.45
2023-01-30T01:21:21.344Z,7.93
2023-01-30T01:23:53.485Z,5.90
2023-01-30T01:26:21.196Z,6.88
2023-01-30T01:28:48.388Z,5.80
2023-01-30T01:31:17.312Z,6.20
2023-01-30T01:33:44.260Z,6.03
2023-01-30T01:36:12.276Z,5.47
2023-01-30T01:38:43.271Z,6.10
2023-01-30T01:41:16.379Z,5.65
2023-01-30T01:44:07.056Z,5.82
2023-01-30T01:46:47.265Z,5.75
2023-01-30T01:49:32.235Z,4.70
2023-01-30T01:52:08.002Z,4.63
2023-01-30T01:54:49.704Z,5.60
2023-01-30T01:57:42.791Z,5.72
2023-01-30T02:00:19.437Z,5.78
2023-01-30T02:02:58.635Z,5.55
2023-01-30T02:05:32.310Z,5.55
2023-01-30T02:08:19.734Z,5.32
2023-01-30T02:11:09.567Z,5.10
2023-01-30T02:13:38.025Z,5.15
2023-01-30T02:16:09.197Z,5.35
2023-01-30T02:18:42.108Z,5.07
2023-01-30T02:21:39.413Z,4.78
2023-01-30T02:24:48.029Z,4.93
2023-01-30T02:27:25.169Z,6.13
2023-01-30T02:30:44.706Z,4.90
2023-01-30T02:34:08.675Z,5.32
2023-01-30T02:37:29.960Z,5.28
2023-01-30T02:40:42.033Z,4.93
2023-01-30T02:43:33.760Z,5.20
2023-01-30T02:46:08.783Z,4.60
2023-01-30T02:48:50.221Z,4.22
2023-01-30T02:51:35.014Z,4.75
2023-01-30T02:54:01.996Z,4.45
2023-01-30T02:56:29.040Z,4.25
2023-01-30T02:59:06.029Z,4.10
2023-01-30T03:01:43.501Z,4.30
2023-01-30T03:04:26.439Z,4.15
2023-01-30T03:07:11.676Z,3.58
2023-01-30T03:10:01.049Z,3.03
2023-01-30T03:13:13.589Z,3.63
2023-01-30T03:15:51.082Z,3.78
2023-01-30T03:18:20.357Z,3.85
2023-01-30T03:20:48.010Z,3.70
2023-01-30T03:23:14.813Z,3.60
2023-01-30T03:25:45.620Z,3.88
2023-01-30T03:28:17.992Z,3.45
2023-01-30T03:30:44.910Z,3.20
2023-01-30T03:33:11.777Z,2.90
2023-01-30T03:35:41.163Z,3.17
2023-01-30T03:38:10.368Z,3.38
2023-01-30T03:40:37.628Z,3.40
2023-01-30T03:43:04.930Z,3.00
2023-01-30T03:45:32.096Z,3.35
2023-01-30T03:47:58.890Z,3.28
2023-01-30T03:50:25.728Z,2.70
2023-01-30T03:52:52.661Z,3.33
2023-01-30T03:55:21.233Z,3.25
2023-01-30T03:57:48.487Z,4.03
2023-01-30T04:00:18.363Z,3.28
2023-01-30T04:02:48.325Z,2.60
2023-01-30T04:05:18.811Z,3.17
2023-01-30T04:07:57.878Z,3.15
2023-01-30T04:10:26.307Z,2.53
2023-01-30T04:12:53.512Z,2.60
2023-01-30T04:15:22.056Z,3.35
2023-01-30T04:18:02.268Z,2.80
2023-01-30T04:20:46.488Z,3.28
2023-01-30T04:23:15.124Z,3.33
2023-01-30T04:25:41.984Z,2.75
2023-01-30T04:28:09.918Z,2.75
2023-01-30T04:30:38.437Z,2.53
2023-01-30T04:33:24.016Z,2.67
2023-01-30T04:35:59.611Z,2.80
2023-01-30T04:38:30.377Z,2.83
2023-01-30T04:40:58.614Z,2.58
2023-01-30T04:43:29.980Z,2.92
2023-01-30T04:46:29.121Z,2.60
2023-01-30T04:48:56.852Z,2.58
2023-01-30T04:51:23.739Z,1.85
2023-01-30T04:53:51.284Z,2.28
2023-01-30T04:56:18.220Z,2.85
2023-01-30T04:58:47.341Z,2.28
2023-01-30T05:01:34.700Z,1.95
2023-01-30T05:04:02.948Z,2.10
2023-01-30T05:06:32.054Z,2.20
2023-01-30T05:08:59.733Z,2.42
2023-01-30T05:11:29.313Z,2.10
2023-01-30T05:13:56.476Z,2.65
2023-01-30T05:16:24.534Z,2.35
2023-01-30T05:18:51.561Z,2.00
2023-01-30T05:21:23.361Z,2.33
2023-01-30T05:23:53.005Z,2.28
2023-01-30T05:26:20.774Z,2.58
2023-01-30T05:28:56.544Z,2.28
2023-01-30T05:31:23.955Z,2.65
2023-01-30T05:33:52.363Z,2.58
2023-01-30T05:36:22.015Z,2.13
2023-01-30T05:38:48.893Z,2.00
2023-01-30T05:41:17.579Z,2.35
2023-01-30T05:43:48.439Z,2.85
2023-01-30T05:46:15.420Z,2.72
2023-01-30T05:48:42.249Z,2.95
2023-01-30T05:51:24.598Z,2.42
2023-01-30T05:53:52.078Z,3.35
2023-01-30T05:56:19.717Z,3.00
2023-01-30T05:58:55.553Z,3.40
2023-01-30T06:01:23.599Z,3.00
2023-01-30T06:03:50.535Z,3.65
2023-01-30T06:06:17.806Z,2.20
2023-01-30T06:08:44.931Z,2.85
2023-01-30T06:11:15.620Z,3.17
2023-01-30T06:13:43.753Z,2.47
2023-01-30T06:16:14.412Z,2.40
2023-01-30T06:18:41.909Z,3.85
2023-01-30T06:21:09.513Z,3.80
2023-01-30T06:23:36.490Z,3.47
2023-01-30T06:26:05.400Z,2.92
2023-01-30T06:28:35.045Z,3.08
2023-01-30T06:31:02.076Z,2.90
2023-01-30T06:33:29.101Z,3.60
2023-01-30T06:35:55.871Z,3.20
2023-01-30T06:38:22.691Z,3.78
2023-01-30T06:40:50.900Z,3.55
2023-01-30T06:43:18.389Z,3.67
2023-01-30T06:45:45.263Z,3.42
2023-01-30T06:48:12.123Z,3.38
2023-01-30T06:50:38.959Z,3.40
2023-01-30T06:53:07.825Z,2.67
2023-01-30T06:55:35.945Z,3.83
2023-01-30T06:58:12.185Z,4.25
2023-01-30T07:00:42.285Z,4.60
2023-01-30T07:03:15.164Z,3.97
2023-01-30T07:05:44.886Z,3.35
2023-01-30T07:08:12.747Z,3.60
2023-01-30T07:10:41.657Z,3.70
2023-01-30T07:13:08.495Z,2.97
2023-01-30T07:15:35.385Z,3.42
2023-01-30T07:18:02.242Z,3.53
2023-01-30T07:20:31.115Z,3.35
2023-01-30T07:22:58.306Z,2.55
2023-01-30T07:25:27.667Z,3.55
2023-01-30T07:27:59.486Z,3.80
2023-01-30T07:30:29.249Z,2.80
2023-01-30T07:32:59.082Z,2.92
2023-01-30T07:35:29.452Z,3.08
2023-01-30T07:37:57.264Z,3.45
2023-01-30T07:40:24.880Z,3.03
2023-01-30T07:43:10.333Z,2.78
2023-01-30T07:45:46.060Z,3.38
2023-01-30T07:48:16.969Z,3.63
2023-01-30T07:50:44.369Z,2.72
2023-01-30T07:53:14.972Z,5.15
2023-01-30T07:55:42.713Z,3.45
2023-01-30T07:58:15.886Z,3.17
2023-01-30T08:00:44.034Z,3.28
2023-01-30T08:03:16.840Z,3.05
2023-01-30T08:05:46.882Z,3.72
2023-01-30T08:08:14.352Z,2.88
2023-01-30T08:10:41.431Z,2.67
2023-01-30T08:13:08.270Z,3.22
2023-01-30T08:15:35.100Z,4.28
2023-01-30T08:18:02.317Z,3.80
2023-01-30T08:20:29.683Z,4.85
2023-01-30T08:22:59.068Z,3.20
2023-01-30T08:25:27.221Z,2.53
2023-01-30T08:27:54.400Z,3.33
2023-01-30T08:30:22.474Z,3.45
2023-01-30T08:32:49.824Z,3.22
2023-01-30T08:35:16.967Z,3.30
2023-01-30T08:37:44.075Z,3.13
2023-01-30T08:40:11.742Z,2.88
2023-01-30T08:42:38.734Z,3.13
2023-01-30T08:45:06.608Z,3.25
2023-01-30T08:47:35.402Z,3.75
2023-01-30T08:50:04.353Z,3.45
2023-01-30T08:52:33.391Z,3.08
2023-01-30T08:55:00.407Z,3.08
2023-01-30T08:57:27.271Z,3.13
2023-01-30T08:59:54.207Z,2.80
2023-01-30T09:02:21.094Z,2.70
2023-01-30T09:04:47.874Z,2.90
2023-01-30T09:07:14.831Z,2.88
2023-01-30T09:09:41.738Z,2.83
2023-01-30T09:12:08.659Z,3.22
2023-01-30T09:14:35.603Z,3.28
2023-01-30T09:17:02.993Z,3.47
2023-01-30T09:19:29.867Z,3.10
2023-01-30T09:21:56.859Z,3.70
2023-01-30T09:24:27.814Z,3.67
2023-01-30T09:26:58.767Z,3.17
2023-01-30T09:29:29.129Z,2.97
2023-01-30T09:31:56.904Z,2.58
2023-01-30T09:34:28.681Z,3.88
2023-01-30T09:37:04.882Z,3.20
2023-01-30T09:39:31.952Z,2.50
2023-01-30T09:42:05.098Z,3.00
2023-01-30T09:44:57.844Z,2.50
2023-01-30T09:47:51.012Z,3.25
2023-01-30T09:50:33.152Z,2.13
2023-01-30T09:53:20.807Z,2.40
2023-01-30T09:55:48.336Z,2.30
2023-01-30T09:58:22.685Z,2.90
2023-01-30T10:01:01.000Z,2.85
2023-01-30T10:03:36.705Z,3.63
2023-01-30T10:06:14.136Z,2.72
2023-01-30T10:09:16.016Z,2.70
2023-01-30T10:11:54.918Z,2.95
2023-01-30T10:14:41.045Z,7.18
2023-01-30T10:17:27.105Z,6.53
2023-01-30T10:19:59.922Z,8.40
2023-01-30T10:23:17.304Z,4.50
2023-01-30T10:25:55.213Z,3.05
2023-01-30T10:28:49.840Z,2.95
2023-01-30T10:31:26.280Z,3.55
2023-01-30T10:34:05.920Z,3.13
2023-01-30T10:37:18.570Z,2.65
2023-01-30T10:40:22.015Z,2.92
2023-01-30T10:43:09.713Z,2.70
2023-01-30T10:46:14.535Z,3.33
2023-01-30T10:49:31.417Z,5.15
2023-01-30T10:52:27.031Z,3.35
2023-01-30T10:55:36.797Z,2.97
2023-01-30T10:58:17.412Z,3.30
2023-01-30T11:01:11.867Z,3.47
2023-01-30T11:03:50.074Z,3.60
2023-01-30T11:06:25.672Z,3.85
2023-01-30T11:08:54.880Z,3.65
2023-01-30T11:12:03.324Z,4.05
2023-01-30T11:15:00.565Z,3.75
2023-01-30T11:17:38.404Z,4.25
2023-01-30T11:20:15.203Z,3.53
2023-01-30T11:22:51.186Z,3.05
2023-01-30T11:25:22.292Z,2.95
2023-01-30T11:28:01.419Z,4.15
2023-01-30T11:30:34.253Z,3.47
2023-01-30T11:33:21.511Z,3.17
2023-01-30T11:36:06.408Z,3.90
2023-01-30T11:38:38.728Z,3.40
2023-01-30T11:41:20.523Z,3.33
2023-01-30T11:43:48.371Z,3.92
2023-01-30T11:46:20.423Z,3.47
2023-01-30T11:49:01.713Z,3.42
2023-01-30T11:51:32.504Z,3.65
2023-01-30T11:54:13.839Z,3.58
2023-01-30T11:56:58.672Z,3.10
2023-01-30T11:59:36.975Z,3.53
2023-01-30T12:02:29.759Z,4.15
2023-01-30T12:05:06.759Z,3.47
2023-01-30T12:07:37.714Z,3.60
2023-01-30T12:10:30.538Z,3.47
2023-01-30T12:13:06.556Z,3.05
2023-01-30T12:15:37.567Z,3.63
2023-01-30T12:18:23.656Z,3.67
2023-01-30T12:21:00.270Z,3.80
2023-01-30T12:24:17.881Z,3.90
2023-01-30T12:26:53.564Z,2.90
2023-01-30T12:30:05.321Z,3.30
2023-01-30T12:32:35.180Z,3.00
2023-01-30T12:35:14.973Z,3.00
2023-01-30T12:38:08.838Z,3.28
2023-01-30T12:40:47.141Z,3.80
2023-01-30T12:43:29.136Z,3.17
2023-01-30T12:46:26.215Z,3.40
2023-01-30T12:49:12.261Z,3.25
2023-01-30T12:52:00.077Z,3.30
2023-01-30T12:54:56.424Z,3.50
2023-01-30T12:57:44.072Z,3.08
2023-01-30T13:00:55.500Z,3.38
2023-01-30T13:04:15.116Z,3.17
2023-01-30T13:07:12.180Z,4.13
2023-01-30T13:10:21.182Z,3.42
2023-01-30T13:13:45.763Z,3.58
2023-01-30T13:16:32.185Z,3.28
2023-01-30T13:19:25.444Z,5.10
2023-01-30T13:23:03.630Z,3.60
2023-01-30T13:25:52.985Z,3.10
2023-01-30T13:28:26.328Z,5.75
2023-01-30T13:30:55.656Z,4.43
2023-01-30T13:33:27.371Z,3.95
2023-01-30T13:36:48.955Z,3.70
2023-01-30T13:39:30.462Z,3.95
2023-01-30T13:42:00.756Z,4.13
2023-01-30T13:44:31.344Z,3.92
2023-01-30T13:47:18.309Z,3.60
2023-01-30T13:50:05.724Z,3.20
2023-01-30T13:52:47.222Z,3.53
2023-01-30T13:55:32.050Z,2.92
2023-01-30T13:58:27.275Z,3.63
2023-01-30T14:00:56.642Z,3.65
2023-01-30T14:03:31.393Z,3.60
2023-01-30T14:06:02.626Z,3.17
2023-01-30T14:08:54.833Z,3.60
2023-01-30T14:11:44.603Z,4.05
2023-01-30T14:14:23.915Z,3.63
2023-01-30T14:16:58.159Z,3.33
2023-01-30T14:19:43.611Z,4.53
2023-01-30T14:22:36.637Z,3.63
2023-01-30T14:25:22.399Z,3.35
2023-01-30T14:27:54.844Z,3.15
2023-01-30T14:30:58.608Z,3.72
2023-01-30T14:33:25.345Z,3.33
2023-01-30T14:36:01.298Z,2.80
2023-01-30T14:38:34.326Z,3.70
2023-01-30T14:41:01.057Z,3.80
2023-01-30T14:43:42.793Z,3.88
2023-01-30T14:46:42.032Z,3.03
2023-01-30T14:49:28.206Z,2.92
2023-01-30T14:51:56.249Z,2.88
2023-01-30T14:54:41.315Z,3.38
2023-01-30T14:57:27.704Z,3.35
2023-01-30T15:00:18.153Z,4.47
2023-01-30T15:02:59.746Z,3.58
2023-01-30T15:05:40.202Z,3.58
2023-01-30T15:08:09.885Z,3.75
2023-01-30T15:11:07.665Z,3.80
2023-01-30T15:14:22.207Z,3.00
2023-01-30T15:17:10.838Z,3.80
2023-01-30T15:20:30.738Z,7.32
2023-01-30T15:23:00.915Z,4.30
2023-01-30T15:25:44.977Z,2.92
2023-01-30T15:28:27.282Z,3.75
2023-01-30T15:31:12.586Z,3.55
2023-01-30T15:33:52.296Z,3.38
2023-01-30T15:36:23.786Z,3.42
2023-01-30T15:39:17.904Z,3.92
2023-01-30T15:41:44.876Z,4.15
2023-01-30T15:44:14.352Z,4.05
2023-01-30T15:47:24.030Z,3.80
2023-01-30T15:50:04.851Z,3.65
2023-01-30T15:52:49.296Z,4.38
2023-01-30T15:55:33.942Z,4.22
2023-01-30T15:58:10.723Z,3.67
2023-01-30T16:00:45.859Z,3.50
2023-01-30T16:03:20.025Z,3.45
2023-01-30T16:05:55.231Z,4.30
2023-01-30T16:08:28.682Z,3.38
2023-01-30T16:10:56.272Z,3.00
2023-01-30T16:13:24.697Z,1.90
2023-01-30T16:16:07.992Z,1.73
2023-01-30T16:18:52.971Z,2.20
2023-01-30T16:21:25.024Z,2.63
2023-01-30T16:24:15.461Z,2.45
2023-01-30T16:26:49.681Z,3.47
2023-01-30T16:29:24.555Z,3.25
2023-01-30T16:31:54.377Z,2.75
2023-01-30T16:34:36.846Z,2.55
2023-01-30T16:37:18.677Z,2.80
2023-01-30T16:40:02.901Z,3.58
2023-01-30T16:42:30.991Z,3.05
2023-01-30T16:45:46.966Z,3.00
2023-01-30T16:48:16.670Z,3.70
2023-01-30T16:50:48.549Z,3.28
2023-01-30T16:53:22.325Z,3.08
2023-01-30T16:56:03.925Z,3.20
2023-01-30T16:58:36.523Z,4.70
2023-01-30T17:01:07.560Z,9.95
2023-01-30T17:03:40.598Z,5.53
2023-01-30T17:06:30.136Z,6.47
2023-01-30T17:08:58.789Z,4.20
2023-01-30T17:11:36.713Z,3.40
2023-01-30T17:14:31.219Z,3.65
2023-01-30T17:17:11.718Z,3.72
2023-01-30T17:19:38.574Z,3.40
2023-01-30T17:22:15.948Z,3.13
2023-01-30T17:24:42.820Z,3.55
2023-01-30T17:27:10.171Z,4.00
2023-01-30T17:29:44.708Z,2.95
2023-01-30T17:32:15.874Z,2.88
2023-01-30T17:34:42.726Z,2.47
2023-01-30T17:37:17.595Z,2.50
2023-01-30T17:39:44.724Z,2.80
2023-01-30T17:42:13.744Z,2.83
2023-01-30T17:44:41.467Z,2.03
2023-01-30T17:47:11.910Z,2.63
2023-01-30T17:49:40.069Z,2.22
2023-01-30T17:52:07.330Z,2.10
2023-01-30T17:54:34.508Z,2.75
2023-01-30T17:57:05.652Z,2.85
2023-01-30T17:59:33.338Z,2.60
2023-01-30T18:02:00.352Z,2.78
2023-01-30T18:04:27.405Z,2.47
2023-01-30T18:07:02.153Z,3.35
2023-01-30T18:09:29.799Z,3.22
2023-01-30T18:11:56.798Z,4.40
2023-01-30T18:14:23.840Z,4.10
2023-01-30T18:16:51.079Z,3.88
2023-01-30T18:19:18.532Z,3.70
2023-01-30T18:21:45.599Z,4.47
2023-01-30T18:24:13.622Z,4.00
2023-01-30T18:26:42.168Z,3.17
2023-01-30T18:29:09.888Z,4.28
2023-01-30T18:31:38.722Z,3.55
2023-01-30T18:34:07.197Z,4.00
2023-01-30T18:36:35.897Z,4.43
2023-01-30T18:39:04.025Z,4.50
2023-01-30T18:41:30.982Z,3.83
2023-01-30T18:44:01.433Z,3.90
2023-01-30T18:46:29.202Z,4.47
2023-01-30T18:48:56.708Z,4.53
2023-01-30T18:51:32.003Z,3.95
2023-01-30T18:54:01.464Z,4.55
2023-01-30T18:56:31.786Z,4.50
2023-01-30T18:59:03.682Z,4.03
2023-01-30T19:01:35.420Z,3.55
2023-01-30T19:04:06.319Z,3.55
2023-01-30T19:06:37.982Z,4.00
2023-01-30T19:09:05.951Z,5.90
2023-01-30T19:11:52.298Z,7.03
2023-01-30T19:14:19.288Z,6.10
2023-01-30T19:16:46.246Z,6.15
2023-01-30T19:19:13.742Z,4.85
2023-01-30T19:21:40.635Z,5.82
2023-01-30T19:24:13.769Z,7.35
2023-01-30T19:26:40.998Z,6.13
2023-01-30T19:29:08.417Z,5.60
2023-01-30T19:31:35.540Z,5.88
2023-01-30T19:34:06.855Z,4.60
2023-01-30T19:36:36.063Z,4.70
2023-01-30T19:39:05.977Z,4.43
2023-01-30T19:41:36.448Z,4.18
2023-01-30T19:44:07.481Z,4.78
2023-01-30T19:46:35.119Z,4.00
2023-01-30T19:49:03.388Z,3.70
2023-01-30T19:51:33.682Z,3.30
2023-01-30T19:54:06.589Z,4.38
2023-01-30T19:56:34.522Z,6.40
2023-01-30T19:59:02.222Z,5.20
2023-01-30T20:01:32.876Z,3.70
2023-01-30T20:04:02.454Z,3.60
2023-01-30T20:06:32.553Z,3.78
2023-01-30T20:09:06.625Z,5.68
2023-01-30T20:11:36.399Z,4.68
2023-01-30T20:14:06.589Z,4.47
2023-01-30T20:16:35.685Z,3.75
2023-01-30T20:19:07.588Z,3.63
2023-01-30T20:21:35.985Z,3.55
2023-01-30T20:24:03.710Z,3.40
2023-01-30T20:26:39.309Z,3.30
2023-01-30T20:29:09.139Z,3.42
2023-01-30T20:31:39.015Z,3.20
2023-01-30T20:34:11.657Z,3.33
2023-01-30T20:36:38.549Z,3.30
2023-01-30T20:39:07.638Z,3.60
2023-01-30T20:41:36.956Z,3.45
2023-01-30T20:44:07.812Z,2.58
2023-01-30T20:46:44.566Z,4.13
2023-01-30T20:49:19.506Z,3.13
2023-01-30T20:51:50.106Z,3.45
2023-01-30T20:54:19.695Z,3.30
2023-01-30T20:56:51.012Z,3.22
2023-01-30T20:59:23.921Z,3.05
2023-01-30T21:01:52.374Z,3.53
2023-01-30T21:04:21.093Z,3.53
2023-01-30T21:06:47.952Z,3.88
2023-01-30T21:09:19.630Z,3.25
2023-01-30T21:11:48.062Z,3.20
2023-01-30T21:14:16.828Z,2.85
2023-01-30T21:16:44.673Z,3.28
2023-01-30T21:19:18.124Z,3.08
2023-01-30T21:21:53.342Z,3.00
2023-01-30T21:24:28.716Z,3.10
2023-01-30T21:26:56.734Z,2.95
2023-01-30T21:29:27.362Z,3.03
2023-01-30T21:31:56.165Z,2.92
2023-01-30T21:34:23.494Z,2.85
2023-01-30T21:37:08.702Z,2.63
2023-01-30T21:39:54.263Z,3.03
2023-01-30T21:42:40.387Z,2.63
2023-01-30T21:45:08.156Z,2.80
2023-01-30T21:47:34.943Z,2.88
2023-01-30T21:50:01.893Z,3.40
2023-01-30T21:52:32.274Z,2.90
2023-01-30T21:54:59.169Z,3.00
2023-01-30T21:57:25.980Z,3.05
2023-01-30T21:59:52.717Z,2.95
2023-01-30T22:02:19.476Z,2.92
2023-01-30T22:04:46.314Z,2.60
2023-01-30T22:07:13.158Z,2.80
2023-01-30T22:09:39.967Z,2.42
2023-01-30T22:12:06.890Z,3.30
2023-01-30T22:14:36.347Z,2.88
2023-01-30T22:17:03.272Z,2.17
2023-01-30T22:19:35.042Z,3.25
2023-01-30T22:22:02.617Z,2.78
2023-01-30T22:24:29.582Z,2.78
2023-01-30T22:26:56.737Z,2.63
2023-01-30T22:29:23.573Z,2.35
2023-01-30T22:31:50.372Z,2.40
2023-01-30T22:34:17.198Z,2.88
2023-01-30T22:36:44.041Z,2.83
2023-01-30T22:39:10.969Z,2.58
2023-01-30T22:41:38.592Z,2.28
2023-01-30T22:44:09.647Z,2.65
2023-01-30T22:46:39.696Z,2.83
2023-01-30T22:49:08.546Z,2.45
2023-01-30T22:51:39.677Z,2.55
2023-01-30T22:54:11.293Z,2.47
2023-01-30T22:56:40.997Z,2.25
2023-01-30T22:59:09.374Z,2.58
2023-01-30T23:01:40.141Z,2.55
2023-01-30T23:04:12.686Z,2.85
2023-01-30T23:06:40.608Z,2.53
2023-01-30T23:09:10.696Z,2.40
2023-01-30T23:11:42.276Z,2.55
2023-01-30T23:14:15.469Z,2.63
2023-01-30T23:16:45.184Z,2.40
2023-01-30T23:19:13.555Z,2.30
2023-01-30T23:21:45.624Z,2.38
2023-01-30T23:24:21.075Z,2.55
2023-01-30T23:26:51.320Z,2.42
2023-01-30T23:29:20.382Z,2.22
2023-01-30T23:31:48.037Z,2.38
2023-01-30T23:34:18.934Z,2.17
2023-01-30T23:36:46.376Z,1.85
2023-01-30T23:39:14.695Z,2.30
2023-01-30T23:41:42.813Z,3.17
2023-01-30T23:44:10.357Z,2.28
2023-01-30T23:46:42.334Z,3.08
2023-01-30T23:49:13.536Z,2.33
2023-01-30T23:51:44.210Z,2.58
2023-01-30T23:54:13.056Z,2.55
2023-01-30T23:56:43.536Z,2.95
2023-01-30T23:59:12.026Z,2.95
